createdAt,value
2019-04-10T00:01:19.884Z,11.30
2019-04-10T00:06:24.023Z,11.30
2019-04-10T00:11:28.970Z,11.30
2019-04-10T00:16:33.325Z,11.20
2019-04-10T00:21:37.603Z,11.20
2019-04-10T00:26:41.871Z,11.20
2019-04-10T00:31:46.607Z,11.20
2019-04-10T00:36:51.349Z,11.20
2019-04-10T00:41:56.671Z,11.20
2019-04-10T00:47:02.452Z,11.10
2019-04-10T00:52:07.993Z,11.10
2019-04-10T00:57:12.812Z,11.10
2019-04-10T01:02:18.566Z,11.10
2019-04-10T01:07:33.750Z,11.10
2019-04-10T01:12:30.783Z,11.10
2019-04-10T01:17:35.731Z,11.00
2019-04-10T01:22:41.471Z,11.10
2019-04-10T01:27:47.903Z,11.00
2019-04-10T01:32:52.958Z,11.00
2019-04-10T01:38:01.063Z,11.00
2019-04-10T01:43:11.501Z,10.90
2019-04-10T01:48:12.113Z,11.00
2019-04-10T01:53:17.630Z,11.00
2019-04-10T01:58:23.512Z,10.90
2019-04-10T02:03:29.836Z,10.90
2019-04-10T02:08:34.803Z,10.80
2019-04-10T02:13:40.131Z,10.80
2019-04-10T02:18:46.089Z,10.80
2019-04-10T02:23:52.320Z,10.80
2019-04-10T02:28:57.660Z,10.80
2019-04-10T02:34:04.614Z,10.80
2019-04-10T02:39:20.761Z,10.80
2019-04-10T02:44:16.442Z,10.70
2019-04-10T02:49:22.462Z,10.70
2019-04-10T02:54:28.946Z,10.70
2019-04-10T02:59:35.070Z,10.70
2019-04-10T03:04:40.525Z,10.60
2019-04-10T03:10:00.948Z,10.60
2019-04-10T03:14:54.896Z,10.60
2019-04-10T03:20:00.261Z,10.60
2019-04-10T03:25:06.016Z,10.60
2019-04-10T03:30:14.577Z,10.60
2019-04-10T03:35:24.852Z,10.60
2019-04-10T03:40:31.264Z,10.50
2019-04-10T03:45:37.007Z,10.60
2019-04-10T03:50:42.114Z,10.50
2019-04-10T03:55:47.337Z,10.50
2019-04-10T04:00:52.902Z,10.50
2019-04-10T04:06:03.697Z,10.50
2019-04-10T04:11:09.268Z,10.40
2019-04-10T04:16:15.622Z,10.30
2019-04-10T04:21:21.279Z,10.30
2019-04-10T04:26:31.657Z,10.30
2019-04-10T04:31:38.393Z,10.30
2019-04-10T04:36:43.129Z,10.30
2019-04-10T04:41:48.227Z,10.20
2019-04-10T04:46:52.699Z,10.20
2019-04-10T04:51:58.157Z,10.10
2019-04-10T04:57:02.986Z,10.10
2019-04-10T05:02:07.936Z,10.00
2019-04-10T05:07:14.829Z,10.00
2019-04-10T05:12:20.798Z,10.00
2019-04-10T05:17:28.725Z,10.00
2019-04-10T05:22:34.624Z,10.00
2019-04-10T05:27:39.839Z,9.90
2019-04-10T05:32:45.879Z,10.00
2019-04-10T05:38:00.414Z,9.90
2019-04-10T05:43:05.958Z,10.00
2019-04-10T05:48:17.424Z,10.00
2019-04-10T05:53:23.188Z,10.00
2019-04-10T05:58:29.016Z,10.00
2019-04-10T06:03:35.315Z,10.00
2019-04-10T06:08:41.518Z,10.00
2019-04-10T06:13:46.469Z,10.10
2019-04-10T06:18:53.536Z,10.10
2019-04-10T06:24:00.162Z,10.20
2019-04-10T06:34:18.856Z,10.20
2019-04-10T06:39:24.853Z,10.20
2019-04-10T06:49:43.209Z,10.40
2019-04-10T06:54:49.100Z,10.40
2019-04-10T06:59:54.831Z,10.40
2019-04-10T07:05:05.798Z,10.50
2019-04-10T07:10:20.561Z,10.50
2019-04-10T07:15:19.134Z,10.50
2019-04-10T07:20:24.087Z,10.50
2019-04-10T07:25:27.945Z,10.60
2019-04-10T07:30:33.863Z,10.60
2019-04-10T07:35:38.646Z,10.70
2019-04-10T07:40:47.030Z,10.80
2019-04-10T07:45:51.990Z,10.90
2019-04-10T07:50:56.497Z,10.90
2019-04-10T07:56:10.479Z,10.90
2019-04-10T08:01:12.027Z,11.00
2019-04-10T08:06:17.902Z,11.00
2019-04-10T08:11:22.087Z,11.10
2019-04-10T08:16:27.380Z,11.10
2019-04-10T08:21:33.951Z,11.10
2019-04-10T08:26:43.058Z,11.30
2019-04-10T08:31:48.343Z,11.30
2019-04-10T08:36:55.061Z,11.30
2019-04-10T08:41:58.566Z,11.40
2019-04-10T08:47:03.471Z,11.30
2019-04-10T08:52:08.706Z,11.30
2019-04-10T08:57:13.989Z,11.20
2019-04-10T09:02:20.039Z,11.20
2019-04-10T09:07:26.350Z,11.10
2019-04-10T09:12:34.014Z,11.10
2019-04-10T09:17:39.651Z,11.00
2019-04-10T09:23:10.357Z,11.00
2019-04-10T09:27:51.832Z,11.00
2019-04-10T09:32:58.964Z,11.10
2019-04-10T09:38:04.580Z,11.10
2019-04-10T09:43:11.333Z,11.10
2019-04-10T09:48:17.390Z,11.10
2019-04-10T09:53:22.932Z,11.10
2019-04-10T09:58:29.573Z,11.30
2019-04-10T10:03:34.814Z,11.30
2019-04-10T10:08:41.647Z,11.40
2019-04-10T10:13:48.355Z,11.50
2019-04-10T10:18:54.357Z,11.60
2019-04-10T10:23:58.643Z,11.70
2019-04-10T10:29:06.886Z,11.60
2019-04-10T10:34:12.332Z,11.60
2019-04-10T10:39:19.279Z,11.70
2019-04-10T10:44:26.240Z,11.80
2019-04-10T10:49:34.771Z,12.00
2019-04-10T10:54:41.097Z,12.10
2019-04-10T10:59:46.647Z,12.50
2019-04-10T11:04:53.884Z,12.70
2019-04-10T11:10:01.161Z,13.10
2019-04-10T11:15:09.991Z,13.30
2019-04-10T11:20:16.028Z,13.50
2019-04-10T11:25:22.135Z,13.60
2019-04-10T11:30:28.610Z,13.60
2019-04-10T11:35:39.662Z,13.70
2019-04-10T11:40:43.266Z,13.80
2019-04-10T11:45:52.442Z,13.90
2019-04-10T11:50:58.929Z,14.00
2019-04-10T11:56:05.170Z,14.10
2019-04-10T16:45:40.441Z,15.50
2019-04-10T16:50:47.791Z,15.50
2019-04-10T16:55:54.307Z,15.20
2019-04-10T17:00:59.346Z,15.10
2019-04-10T17:06:04.015Z,15.00
2019-04-10T17:11:09.184Z,14.80
2019-04-10T17:16:14.046Z,14.60
2019-04-10T17:21:18.468Z,14.40
2019-04-10T17:26:24.720Z,14.40
2019-04-10T17:31:30.784Z,14.30
2019-04-10T17:36:37.283Z,14.10
2019-04-10T17:41:42.122Z,14.10
2019-04-10T17:46:49.166Z,13.90
2019-04-10T17:51:54.550Z,13.80
2019-04-10T17:57:00.331Z,13.70
2019-04-10T18:02:11.674Z,13.60
2019-04-10T18:07:19.680Z,13.40
2019-04-10T18:12:25.097Z,13.30
2019-04-10T18:17:31.178Z,13.20
2019-04-10T18:22:36.842Z,13.00
2019-04-10T18:27:42.587Z,12.60
2019-04-10T18:32:48.148Z,12.40
2019-04-10T18:37:55.115Z,12.30
2019-04-10T18:43:02.144Z,12.20
2019-04-10T18:48:08.321Z,12.00
2019-04-10T18:53:15.010Z,11.70
2019-04-10T18:58:25.633Z,11.60
2019-04-10T19:04:04.073Z,11.70
2019-04-10T19:09:15.738Z,11.70
2019-04-10T19:14:16.299Z,11.70
2019-04-10T19:19:21.509Z,11.50
2019-04-10T19:24:28.484Z,11.50
2019-04-10T19:29:33.807Z,11.40
2019-04-10T19:34:39.312Z,11.40
2019-04-10T19:39:45.221Z,11.30
2019-04-10T19:44:50.990Z,11.20
2019-04-10T19:49:57.122Z,11.10
2019-04-10T19:55:03.275Z,11.10
2019-04-10T20:00:10.673Z,11.00
2019-04-10T20:05:16.893Z,11.00
2019-04-10T20:10:22.060Z,10.90
2019-04-10T20:15:27.312Z,10.80
2019-04-10T20:20:32.903Z,10.80
2019-04-10T20:25:36.940Z,10.70
2019-04-10T20:30:42.463Z,10.60
2019-04-10T20:35:47.202Z,10.50
2019-04-10T20:40:51.725Z,10.50
2019-04-10T20:45:55.937Z,10.50
2019-04-10T20:51:00.879Z,10.40
2019-04-10T20:56:06.244Z,10.30
2019-04-10T21:01:12.395Z,10.20
2019-04-10T21:06:17.608Z,10.20
2019-04-10T21:11:22.626Z,10.10
2019-04-10T21:16:28.422Z,10.00
2019-04-10T21:21:32.946Z,10.00
2019-04-10T21:26:37.441Z,9.90
2019-04-10T21:32:07.319Z,9.80
2019-04-10T21:37:13.584Z,9.80
2019-04-10T21:42:22.332Z,9.80
2019-04-10T21:47:25.676Z,9.70
2019-04-10T21:52:30.722Z,9.60
2019-04-10T21:57:35.421Z,9.60
2019-04-10T22:02:40.575Z,9.50
2019-04-10T22:08:10.545Z,9.40
2019-04-10T22:13:15.601Z,9.40
2019-04-10T22:18:21.127Z,9.40
2019-04-10T22:23:26.537Z,9.30
2019-04-10T22:28:32.956Z,9.30
2019-04-10T22:33:38.500Z,9.30
2019-04-10T22:38:44.010Z,9.20
2019-04-10T22:43:49.135Z,9.20
2019-04-10T22:48:55.650Z,9.10
2019-04-10T22:54:01.873Z,9.10
2019-04-10T22:59:07.990Z,9.00
2019-04-10T23:04:14.159Z,8.90
2019-04-10T23:09:20.148Z,8.90
2019-04-10T23:14:25.444Z,8.90
2019-04-10T23:19:30.496Z,8.80
2019-04-10T23:24:35.903Z,8.70
2019-04-10T23:29:42.226Z,8.70
2019-04-10T23:34:49.210Z,8.60
2019-04-10T23:39:55.197Z,8.50
2019-04-10T23:45:00.120Z,8.40
2019-04-10T23:50:06.036Z,8.30
2019-04-10T23:55:11.009Z,8.30
